createdAt,value
2022-09-23T00:00:14.870Z,101749.53
2022-09-23T00:02:45.900Z,101905.31
2022-09-23T00:05:12.832Z,101831.53
2022-09-23T00:07:40.543Z,101837.47
2022-09-23T00:10:08.193Z,101790.41
2022-09-23T00:12:35.090Z,101766.66
2022-09-23T00:15:03.332Z,101909.28
2022-09-23T00:17:33.606Z,101754.78
2022-09-23T00:20:02.155Z,101810.91
2022-09-23T00:22:28.972Z,101896.53
2022-09-23T00:24:55.625Z,101896.53
2022-09-23T00:27:22.592Z,101867.59
2022-09-23T00:29:49.265Z,101879.06
2022-09-23T00:32:16.001Z,101888.69
2022-09-23T00:34:44.443Z,101855.59
2022-09-23T00:37:12.854Z,101859.41
2022-09-23T00:39:39.590Z,101888.09
2022-09-23T00:42:06.525Z,101879.31
2022-09-23T00:44:45.453Z,101839.16
2022-09-23T00:47:18.535Z,101852.28
2022-09-23T00:49:47.866Z,101823.50
2022-09-23T00:52:19.606Z,101886.13
2022-09-23T00:54:47.370Z,101823.50
2022-09-23T00:57:16.221Z,101870.31
2022-09-23T00:59:44.114Z,101871.69
2022-09-23T01:02:13.597Z,101879.06
2022-09-23T01:04:41.056Z,101873.88
2022-09-23T01:07:08.128Z,101873.66
2022-09-23T01:09:36.826Z,101875.28
2022-09-23T01:12:18.430Z,101874.47
2022-09-23T01:14:49.003Z,101870.56
2022-09-23T01:17:24.071Z,101870.03
2022-09-23T01:20:13.798Z,101814.00
2022-09-23T01:22:46.666Z,101858.97
2022-09-23T01:25:29.409Z,101863.31
2022-09-23T01:28:16.178Z,101857.91
2022-09-23T01:30:53.647Z,101847.91
2022-09-23T01:33:25.012Z,101856.84
2022-09-23T01:36:07.108Z,101853.31
2022-09-23T01:38:44.998Z,101846.00
2022-09-23T01:41:31.061Z,101851.66
2022-09-23T01:44:04.105Z,101818.06
2022-09-23T01:46:37.989Z,101843.78
2022-09-23T01:49:09.960Z,101843.22
2022-09-23T01:51:41.473Z,101816.56
2022-09-23T01:54:10.641Z,101840.13
2022-09-23T01:56:42.828Z,101825.28
2022-09-23T01:59:14.866Z,101815.25
2022-09-23T02:01:55.900Z,101791.25
2022-09-23T02:04:28.219Z,101796.66
2022-09-23T02:06:59.181Z,101782.97
2022-09-23T02:09:31.815Z,101808.88
2022-09-23T02:12:05.533Z,101813.97
2022-09-23T02:14:36.351Z,101789.91
2022-09-23T02:17:10.668Z,101799.16
2022-09-23T02:19:42.734Z,101793.19
2022-09-23T02:22:12.910Z,101795.47
2022-09-23T02:24:40.442Z,101798.44
2022-09-23T02:27:15.510Z,101796.50
2022-09-23T02:29:50.508Z,101821.75
2022-09-23T02:32:23.725Z,101755.09
2022-09-23T02:34:58.732Z,101655.28
2022-09-23T02:37:35.803Z,101653.63
2022-09-23T02:40:14.227Z,101594.31
2022-09-23T02:42:49.638Z,101797.16
2022-09-23T02:45:17.078Z,101675.75
2022-09-23T02:47:50.042Z,101688.69
2022-09-23T02:50:19.037Z,101742.81
2022-09-23T02:52:46.579Z,101668.06
2022-09-23T02:55:16.958Z,101711.84
2022-09-23T02:57:44.846Z,101598.09
2022-09-23T03:00:13.202Z,101766.25
2022-09-23T03:02:57.317Z,101766.50
2022-09-23T03:05:28.124Z,101766.75
2022-09-23T03:08:13.713Z,101722.59
2022-09-23T03:10:52.733Z,101752.31
2022-09-23T03:13:29.491Z,101671.50
2022-09-23T03:16:08.881Z,101747.66
2022-09-23T03:18:42.868Z,101748.66
2022-09-23T03:21:16.268Z,101744.31
2022-09-23T03:23:46.518Z,101585.97
2022-09-23T03:26:18.922Z,101681.47
2022-09-23T03:28:49.773Z,101746.69
2022-09-23T03:31:17.418Z,101598.63
2022-09-23T03:33:50.367Z,101740.94
2022-09-23T03:36:21.719Z,101542.97
2022-09-23T03:38:51.814Z,101710.47
2022-09-23T03:41:25.004Z,101732.75
2022-09-23T03:43:54.128Z,101549.78
2022-09-23T03:46:21.677Z,101565.56
2022-09-23T03:48:49.877Z,101560.66
2022-09-23T03:51:22.011Z,101605.81
2022-09-23T03:53:48.851Z,101663.41
2022-09-23T03:56:15.598Z,101577.13
2022-09-23T03:58:42.481Z,101731.09
2022-09-23T04:01:10.741Z,101647.63
2022-09-23T04:03:37.642Z,101701.69
2022-09-23T04:06:09.788Z,101678.78
2022-09-23T04:08:36.478Z,101542.84
2022-09-23T04:11:04.445Z,101595.72
2022-09-23T04:13:32.117Z,101724.56
2022-09-23T04:15:59.171Z,101697.84
2022-09-23T04:18:26.052Z,101615.56
2022-09-23T04:20:57.863Z,101620.03
2022-09-23T04:23:28.475Z,101635.59
2022-09-23T04:25:55.480Z,101648.50
2022-09-23T04:28:22.769Z,101600.03
2022-09-23T04:30:49.516Z,101704.91
2022-09-23T04:33:17.069Z,101717.44
2022-09-23T04:35:43.887Z,101685.22
2022-09-23T04:38:12.213Z,101622.97
2022-09-23T04:40:40.736Z,101562.63
2022-09-23T04:43:11.710Z,101707.19
2022-09-23T04:45:40.908Z,101618.72
2022-09-23T04:48:09.675Z,101569.72
2022-09-23T04:50:38.108Z,101705.06
2022-09-23T04:53:05.610Z,101570.72
2022-09-23T04:55:35.696Z,101523.34
2022-09-23T04:58:12.326Z,101608.06
2022-09-23T05:00:39.264Z,101596.44
2022-09-23T05:03:08.208Z,101588.94
2022-09-23T05:05:34.864Z,101565.34
2022-09-23T05:08:02.417Z,101627.75
2022-09-23T05:10:30.846Z,101695.47
2022-09-23T05:12:58.060Z,101522.97
2022-09-23T05:15:26.518Z,101523.31
2022-09-23T05:17:53.498Z,101634.97
2022-09-23T05:20:28.369Z,101680.16
2022-09-23T05:22:55.519Z,101674.75
2022-09-23T05:25:22.423Z,101555.06
2022-09-23T05:27:49.218Z,101641.47
2022-09-23T05:30:16.477Z,101554.06
2022-09-23T05:32:44.587Z,101572.09
2022-09-23T05:35:11.318Z,101703.25
2022-09-23T05:37:38.043Z,101695.06
2022-09-23T05:40:05.723Z,101711.44
2022-09-23T05:42:33.125Z,101602.19
2022-09-23T05:44:59.810Z,101611.03
2022-09-23T05:47:27.083Z,101705.88
2022-09-23T05:50:00.182Z,101697.38
2022-09-23T05:52:27.837Z,101680.31
2022-09-23T05:54:56.945Z,101599.72
2022-09-23T05:57:23.936Z,101704.88
2022-09-23T05:59:50.587Z,101697.31
2022-09-23T06:02:17.803Z,101707.66
2022-09-23T06:04:44.813Z,101687.25
2022-09-23T06:07:12.874Z,101650.81
2022-09-23T06:09:39.638Z,101696.19
2022-09-23T06:12:06.945Z,101661.47
2022-09-23T06:14:33.619Z,101591.59
2022-09-23T06:17:00.361Z,101697.88
2022-09-23T06:19:28.703Z,101702.47
2022-09-23T06:21:55.365Z,101702.34
2022-09-23T06:24:30.123Z,101698.06
2022-09-23T06:26:58.298Z,101608.06
2022-09-23T06:29:25.023Z,101601.50
2022-09-23T06:31:51.722Z,101602.03
2022-09-23T06:34:21.056Z,101707.72
2022-09-23T06:36:48.284Z,101576.88
2022-09-23T06:39:15.764Z,101579.72
2022-09-23T06:41:44.779Z,101678.69
2022-09-23T06:44:11.673Z,101550.75
2022-09-23T06:46:38.488Z,101615.66
2022-09-23T06:49:05.385Z,101582.66
2022-09-23T06:51:32.631Z,101684.72
2022-09-23T06:53:59.488Z,101553.88
2022-09-23T06:56:26.660Z,101550.91
2022-09-23T06:58:55.024Z,101664.59
2022-09-23T07:01:21.898Z,101659.13
2022-09-23T07:03:52.372Z,101578.47
2022-09-23T07:06:19.176Z,101549.44
2022-09-23T07:08:46.368Z,101535.84
2022-09-23T07:11:14.046Z,101616.88
2022-09-23T07:13:52.280Z,101683.25
2022-09-23T07:16:23.912Z,101628.53
2022-09-23T07:18:51.016Z,101527.53
2022-09-23T07:21:19.311Z,101658.13
2022-09-23T07:23:49.028Z,101691.50
2022-09-23T07:26:23.305Z,101613.06
2022-09-23T07:28:57.060Z,101523.72
2022-09-23T07:31:38.376Z,101525.13
2022-09-23T07:34:13.342Z,101505.31
2022-09-23T07:36:40.576Z,101619.22
2022-09-23T07:39:12.085Z,101612.78
2022-09-23T07:41:39.497Z,101624.25
2022-09-23T07:44:06.522Z,101695.63
2022-09-23T07:46:49.728Z,101512.13
2022-09-23T07:49:16.585Z,101677.22
2022-09-23T07:51:43.553Z,101687.63
2022-09-23T07:54:12.701Z,101577.66
2022-09-23T07:56:39.676Z,101645.72
2022-09-23T07:59:07.938Z,101590.00
2022-09-23T08:01:38.112Z,101533.69
2022-09-23T08:04:10.522Z,101650.56
2022-09-23T08:06:41.743Z,101678.91
2022-09-23T08:09:08.916Z,101677.03
2022-09-23T08:11:38.674Z,101667.28
2022-09-23T08:14:12.111Z,101677.44
2022-09-23T08:16:41.785Z,101600.63
2022-09-23T08:19:10.289Z,101614.03
2022-09-23T08:21:47.985Z,101608.34
2022-09-23T08:24:18.394Z,101613.84
2022-09-23T08:26:46.432Z,101660.16
2022-09-23T08:29:14.175Z,101672.41
2022-09-23T08:31:41.335Z,101660.47
2022-09-23T08:34:10.021Z,101608.22
2022-09-23T08:36:37.034Z,101684.44
2022-09-23T08:39:06.696Z,101665.41
2022-09-23T08:41:43.573Z,101539.47
2022-09-23T08:44:16.552Z,101697.53
2022-09-23T08:46:49.519Z,101615.41
2022-09-23T08:49:24.688Z,101683.97
2022-09-23T08:51:54.461Z,101511.03
2022-09-23T08:54:29.894Z,101533.38
2022-09-23T08:57:07.837Z,101551.03
2022-09-23T08:59:47.339Z,101540.97
2022-09-23T09:02:18.408Z,101616.53
2022-09-23T09:04:54.223Z,101510.53
2022-09-23T09:07:41.710Z,101665.47
2022-09-23T09:10:19.690Z,101676.34
2022-09-23T09:12:51.021Z,101568.41
2022-09-23T09:15:24.359Z,101506.75
2022-09-23T09:18:02.927Z,101677.94
2022-09-23T09:20:39.914Z,101574.09
2022-09-23T09:23:20.848Z,101658.63
2022-09-23T09:25:50.036Z,101660.53
2022-09-23T09:28:25.251Z,101621.38
2022-09-23T09:30:56.266Z,101599.63
2022-09-23T09:33:31.715Z,101555.38
2022-09-23T09:36:09.674Z,101522.19
2022-09-23T09:38:37.022Z,101675.69
2022-09-23T09:41:13.881Z,101583.06
2022-09-23T09:43:44.206Z,101670.78
2022-09-23T09:46:25.774Z,101658.25
2022-09-23T09:48:56.323Z,101512.94
2022-09-23T09:51:28.728Z,101661.22
2022-09-23T09:54:15.080Z,101642.97
2022-09-23T09:56:42.617Z,101598.41
2022-09-23T09:59:11.472Z,101591.88
2022-09-23T10:01:42.995Z,101596.19
2022-09-23T10:04:20.754Z,101652.66
2022-09-23T10:07:05.524Z,101471.81
2022-09-23T10:09:35.068Z,101499.44
2022-09-23T10:12:12.832Z,101596.53
2022-09-23T10:14:39.767Z,101566.59
2022-09-23T10:17:08.514Z,101551.38
2022-09-23T10:19:38.195Z,101589.31
2022-09-23T10:22:18.403Z,101643.59
2022-09-23T10:24:49.287Z,101623.22
2022-09-23T10:27:51.735Z,101490.50
2022-09-23T10:30:26.979Z,101635.63
2022-09-23T10:32:56.983Z,101567.22
2022-09-23T10:35:25.203Z,101640.53
2022-09-23T10:38:28.423Z,101637.47
2022-09-23T10:40:56.965Z,101593.97
2022-09-23T10:43:32.894Z,101586.31
2022-09-23T10:46:04.184Z,101627.56
2022-09-23T10:48:57.112Z,101639.97
2022-09-23T10:51:32.763Z,101480.44
2022-09-23T10:54:09.987Z,101504.00
2022-09-23T10:56:43.015Z,101539.66
2022-09-23T10:59:31.983Z,101480.84
2022-09-23T11:02:15.671Z,101637.09
2022-09-23T11:05:17.030Z,101643.69
2022-09-23T11:11:26.731Z,101615.59
2022-09-23T11:15:00.210Z,101605.25
2022-09-23T11:18:13.189Z,101557.75
2022-09-23T11:24:52.857Z,101481.78
2022-09-23T11:27:47.888Z,101527.84
2022-09-23T11:30:42.375Z,101592.88
2022-09-23T11:34:05.667Z,101623.25
2022-09-23T11:40:26.774Z,101443.78
2022-09-23T11:43:00.074Z,101611.75
2022-09-23T11:48:46.989Z,101437.19
2022-09-23T11:51:19.374Z,101539.81
2022-09-23T11:54:27.749Z,101437.19
2022-09-23T12:00:26.984Z,101594.78
2022-09-23T12:06:02.883Z,101523.22
2022-09-23T12:08:34.972Z,101559.03
2022-09-23T12:19:25.065Z,101590.69
2022-09-23T12:22:23.057Z,101587.13
2022-09-23T12:25:16.021Z,101407.25
2022-09-23T12:28:20.923Z,101408.78
2022-09-23T12:30:50.192Z,101567.19
2022-09-23T12:34:11.647Z,101490.69
2022-09-23T12:37:17.790Z,101484.53
2022-09-23T12:40:17.088Z,101416.84
2022-09-23T12:42:54.220Z,101557.72
2022-09-23T12:45:47.001Z,101452.69
2022-09-23T12:48:45.857Z,101580.03
2022-09-23T12:51:20.709Z,101573.53
2022-09-23T12:54:20.250Z,101563.25
2022-09-23T12:57:00.805Z,101574.63
2022-09-23T12:59:50.598Z,101499.31
2022-09-23T13:02:31.114Z,101416.69
2022-09-23T13:05:18.960Z,101423.50
2022-09-23T13:07:58.938Z,101541.03
2022-09-23T13:10:54.492Z,101507.25
2022-09-23T13:21:00.627Z,101578.63
2022-09-23T13:28:01.476Z,101400.00
2022-09-23T13:31:15.737Z,101487.91
2022-09-23T13:37:31.175Z,101400.66
2022-09-23T13:40:10.255Z,101408.28
2022-09-23T13:42:40.826Z,101452.75
2022-09-23T13:45:15.570Z,101554.59
2022-09-23T13:47:43.798Z,101552.97
2022-09-23T13:50:24.418Z,101540.44
2022-09-23T14:03:17.924Z,101533.69
2022-09-23T14:05:45.630Z,101504.41
2022-09-23T14:08:14.610Z,101498.72
2022-09-23T14:10:41.978Z,101526.34
2022-09-23T14:13:15.717Z,101532.84
2022-09-23T14:15:42.640Z,101514.09
2022-09-23T14:18:14.702Z,101524.13
2022-09-23T14:20:46.361Z,101521.94
2022-09-23T14:23:14.629Z,101527.94
2022-09-23T14:25:43.291Z,101433.81
2022-09-23T14:28:15.085Z,101437.91
2022-09-23T14:30:42.413Z,101382.19
2022-09-23T14:33:11.114Z,101371.88
2022-09-23T14:35:44.693Z,101506.72
2022-09-23T14:38:11.552Z,101422.81
2022-09-23T14:40:51.836Z,101500.72
2022-09-23T14:43:23.879Z,101501.88
2022-09-23T14:45:53.751Z,101468.22
2022-09-23T14:48:24.559Z,101497.50
2022-09-23T14:50:56.507Z,101494.56
2022-09-23T14:53:34.302Z,101485.34
2022-09-23T14:56:18.175Z,101493.47
2022-09-23T14:58:52.259Z,101493.47
2022-09-23T15:01:37.600Z,101468.28
2022-09-23T15:04:14.189Z,101485.88
2022-09-23T15:06:48.639Z,101481.03
2022-09-23T15:09:27.853Z,101479.44
2022-09-23T15:18:28.920Z,101485.78
2022-09-23T15:31:42.627Z,101313.81
2022-09-23T15:37:26.544Z,101427.25
2022-09-23T15:43:20.169Z,101315.69
2022-09-23T15:53:13.126Z,101474.97
2022-09-23T16:03:07.482Z,101397.09
2022-09-23T16:05:58.705Z,101388.38
2022-09-23T16:08:58.953Z,101336.34
2022-09-23T16:11:52.618Z,101323.31
2022-09-23T16:14:20.394Z,101363.88
2022-09-23T16:16:47.328Z,101435.28
2022-09-23T16:19:21.469Z,101292.91
2022-09-23T16:21:51.079Z,101251.25
2022-09-23T16:25:01.765Z,101439.16
2022-09-23T16:27:30.981Z,101447.34
2022-09-23T16:29:59.571Z,101330.03
2022-09-23T16:32:29.325Z,101344.19
2022-09-23T16:35:07.865Z,101412.16
2022-09-23T16:37:37.664Z,101399.72
2022-09-23T16:40:10.398Z,101274.66
2022-09-23T16:43:06.601Z,101273.63
2022-09-23T16:45:41.167Z,101335.88
2022-09-23T16:48:15.983Z,101456.75
2022-09-23T16:51:02.832Z,101432.53
2022-09-23T16:53:40.998Z,101245.72
2022-09-23T16:56:27.985Z,101393.03
2022-09-23T16:59:04.928Z,101399.50
2022-09-23T17:01:45.257Z,101388.97
2022-09-23T17:04:17.039Z,101266.97
2022-09-23T17:06:54.827Z,101444.16
2022-09-23T17:09:30.871Z,101359.56
2022-09-23T17:12:05.519Z,101272.13
2022-09-23T17:14:34.607Z,101446.81
2022-09-23T17:17:10.211Z,101321.47
2022-09-23T17:19:38.007Z,101262.38
2022-09-23T17:22:11.860Z,101296.28
2022-09-23T17:25:03.591Z,101411.94
2022-09-23T17:28:00.844Z,101451.88
2022-09-23T17:30:37.735Z,101269.25
2022-09-23T17:33:26.438Z,101297.72
2022-09-23T17:36:21.713Z,101270.63
2022-09-23T17:38:58.165Z,101272.28
2022-09-23T17:41:37.346Z,101449.69
2022-09-23T17:44:06.737Z,101316.72
2022-09-23T17:46:35.239Z,101280.38
2022-09-23T17:49:10.984Z,101273.59
2022-09-23T17:52:02.869Z,101356.56
2022-09-23T17:54:56.749Z,101251.38
2022-09-23T17:57:23.891Z,101306.44
2022-09-23T18:00:14.184Z,101289.91
2022-09-23T18:02:43.736Z,101275.28
2022-09-23T18:05:19.714Z,101445.97
2022-09-23T18:07:52.798Z,101452.81
2022-09-23T18:10:39.012Z,101404.78
2022-09-23T18:13:08.522Z,101432.97
2022-09-23T18:15:55.856Z,101438.19
2022-09-23T18:18:31.954Z,101264.75
2022-09-23T18:21:00.912Z,101350.94
2022-09-23T18:23:39.418Z,101433.31
2022-09-23T18:26:26.347Z,101432.00
2022-09-23T18:28:59.831Z,101306.28
2022-09-23T18:31:41.798Z,101426.28
2022-09-23T18:34:29.857Z,101434.75
2022-09-23T18:37:15.261Z,101367.53
2022-09-23T18:39:56.394Z,101265.38
2022-09-23T18:46:21.481Z,101263.00
2022-09-23T18:56:42.829Z,101421.47
2022-09-23T19:02:09.101Z,101326.94
2022-09-23T19:04:41.777Z,101380.28
2022-09-23T19:07:49.841Z,101259.19
2022-09-23T19:10:44.003Z,101240.22
2022-09-23T19:13:37.931Z,101371.59
2022-09-23T19:16:39.652Z,101406.84
2022-09-23T19:19:12.268Z,101414.00
2022-09-23T19:22:25.077Z,101240.03
2022-09-23T19:24:54.768Z,101415.31
2022-09-23T19:27:34.252Z,101242.69
2022-09-23T19:30:09.175Z,101346.72
2022-09-23T19:32:36.296Z,101407.72
2022-09-23T19:35:08.679Z,101366.53
2022-09-23T19:37:57.130Z,101253.00
2022-09-23T19:40:32.824Z,101373.59
2022-09-23T19:43:07.369Z,101410.97
2022-09-23T19:45:43.169Z,101322.34
2022-09-23T19:48:11.548Z,101356.75
2022-09-23T19:50:53.794Z,101297.44
2022-09-23T19:53:32.791Z,101376.56
2022-09-23T19:56:03.961Z,101349.75
2022-09-23T19:58:55.778Z,101397.16
2022-09-23T20:01:41.510Z,101389.56
2022-09-23T20:04:19.845Z,101312.63
2022-09-23T20:06:51.531Z,101226.69
2022-09-23T20:09:32.477Z,101399.88
2022-09-23T20:12:08.123Z,101386.03
2022-09-23T20:14:38.968Z,101388.16
2022-09-23T20:17:09.666Z,101359.50
2022-09-23T20:19:48.093Z,101389.81
2022-09-23T20:22:21.321Z,101377.06
2022-09-23T20:24:50.559Z,101228.31
2022-09-23T20:27:20.109Z,101325.00
2022-09-23T20:29:49.302Z,101206.91
2022-09-23T20:32:26.971Z,101304.75
2022-09-23T20:34:59.908Z,101218.56
2022-09-23T20:37:29.828Z,101209.38
2022-09-23T20:40:06.700Z,101303.88
2022-09-23T20:42:42.839Z,101237.84
2022-09-23T20:45:12.539Z,101202.31
2022-09-23T20:47:43.310Z,101278.97
2022-09-23T20:50:12.331Z,101318.50
2022-09-23T20:55:25.828Z,101259.72
2022-09-23T20:58:04.064Z,101230.75
2022-09-23T21:00:32.390Z,101372.19
2022-09-23T21:06:01.953Z,101327.69
2022-09-23T21:08:35.058Z,101205.50
2022-09-23T21:11:33.227Z,101190.09
2022-09-23T21:14:21.563Z,101328.25
2022-09-23T21:17:08.942Z,101361.56
2022-09-23T21:19:43.330Z,101218.56
2022-09-23T21:22:19.912Z,101330.41
2022-09-23T21:28:03.634Z,101291.91
2022-09-23T21:30:48.519Z,101173.84
2022-09-23T21:33:18.135Z,101358.84
2022-09-23T21:35:57.145Z,101192.25
2022-09-23T21:38:30.347Z,101203.13
2022-09-23T21:43:57.246Z,101311.94
2022-09-23T21:46:39.892Z,101361.56
2022-09-23T21:49:21.700Z,101359.34
2022-09-23T21:51:55.377Z,101289.16
2022-09-23T21:54:35.637Z,101361.81
2022-09-23T21:57:22.354Z,101355.28
2022-09-23T21:59:57.762Z,101185.19
2022-09-23T22:02:51.986Z,101295.16
2022-09-23T22:05:35.347Z,101181.06
2022-09-23T22:08:22.910Z,101355.81
2022-09-23T22:10:49.916Z,101248.47
2022-09-23T22:13:27.115Z,101188.91
2022-09-23T22:18:45.182Z,101275.56
2022-09-23T22:21:32.181Z,101202.44
2022-09-23T22:24:11.373Z,101188.66
2022-09-23T22:26:42.444Z,101206.53
2022-09-23T22:29:22.837Z,101170.22
2022-09-23T22:31:54.927Z,101250.31
2022-09-23T22:34:49.973Z,101253.59
2022-09-23T22:37:20.911Z,101252.25
2022-09-23T22:39:55.238Z,101261.94
2022-09-23T22:42:30.431Z,101219.22
2022-09-23T22:45:00.575Z,101172.88
2022-09-23T22:47:35.432Z,101338.34
2022-09-23T22:50:18.658Z,101351.13
2022-09-23T22:52:46.045Z,101212.69
2022-09-23T22:55:15.867Z,101181.56
2022-09-23T22:57:51.996Z,101294.44
2022-09-23T23:00:26.581Z,101297.66
2022-09-23T23:03:05.959Z,101339.66
2022-09-23T23:05:37.350Z,101178.53
2022-09-23T23:08:13.455Z,101171.47
2022-09-23T23:10:40.197Z,101264.06
2022-09-23T23:13:15.850Z,101330.09
2022-09-23T23:15:49.177Z,101177.41
2022-09-23T23:21:23.506Z,101183.59
2022-09-23T23:24:15.259Z,101154.94
2022-09-23T23:26:57.948Z,101329.06
2022-09-23T23:29:35.686Z,101320.84
2022-09-23T23:32:08.617Z,101162.47
2022-09-23T23:34:41.239Z,101149.75
2022-09-23T23:37:31.020Z,101247.19
2022-09-23T23:40:07.768Z,101253.63
2022-09-23T23:42:37.596Z,101275.31
2022-09-23T23:45:08.614Z,101172.19
2022-09-23T23:47:38.439Z,101265.88
2022-09-23T23:50:11.249Z,101278.03
2022-09-23T23:52:44.868Z,101270.94
2022-09-23T23:55:17.873Z,101271.75
2022-09-23T23:57:58.551Z,101241.72
